Time;durP1;ratioP1;P1;durP2;ratioP2;P2;SDS_P1;SDS_P2;PMS_P1;PMS_P2;Temp;Humidity;BMP_temperature;BMP_pressure;BME280_temperature;BME280_humidity;BME280_pressure;Samples;Min_cycle;Max_cycle;Signal;HPM_P1;HPM_P2
2023/03/20 00:02:17;;;;;;;19.08;8.10;;;;;;;8.35;93.79;101945.28;4897612;29;20045;-94
2023/03/20 00:04:42;;;;;;;17.90;7.18;;;;;;;8.36;93.79;101950.53;4890982;29;20047;-95
2023/03/20 00:07:16;;;;;;;19.95;7.85;;;;;;;8.38;94.09;101953.22;4895523;29;20569;-93
2023/03/20 00:09:42;;;;;;;17.77;7.68;;;;;;;8.36;93.84;101941.88;4895135;29;20565;-94
2023/03/20 00:12:14;;;;;;;18.48;7.90;;;;;;;8.33;93.92;101941.72;4895178;29;20114;-93
2023/03/20 00:14:42;;;;;;;19.27;8.45;;;;;;;8.35;93.91;101943.56;4896112;29;20028;-94
2023/03/20 00:17:20;;;;;;;19.20;7.68;;;;;;;8.38;93.92;101950.63;4891573;29;20055;-94
2023/03/20 00:19:46;;;;;;;17.70;8.00;;;;;;;8.38;93.58;101945.44;4910058;29;20036;-93
2023/03/20 00:22:11;;;;;;;21.00;8.48;;;;;;;8.35;93.66;101945.28;4892664;29;20024;-94
2023/03/20 00:24:38;;;;;;;17.90;7.93;;;;;;;8.32;93.73;101934.75;4908501;29;20556;-93
2023/03/20 00:27:04;;;;;;;19.40;7.75;;;;;;;8.30;94.03;101938.97;4894044;29;20028;-93
2023/03/20 00:29:33;;;;;;;18.52;8.18;;;;;;;8.25;93.70;101930.94;4909303;29;20037;-94
2023/03/20 00:32:01;;;;;;;19.50;8.02;;;;;;;8.21;93.96;101925.50;4912665;29;20096;-93
2023/03/20 00:34:28;;;;;;;19.98;7.82;;;;;;;8.20;93.88;101922.03;4912090;29;20505;-93
2023/03/20 00:37:02;;;;;;;16.13;6.93;;;;;;;8.21;93.97;101917.72;4895297;29;20028;-92
2023/03/20 00:39:31;;;;;;;17.83;7.97;;;;;;;8.24;93.42;101910.09;4894070;29;20087;-94
2023/03/20 00:42:01;;;;;;;22.13;7.60;;;;;;;8.26;93.07;101908.47;4894204;29;20148;-93
2023/03/20 00:44:41;;;;;;;20.17;8.13;;;;;;;8.28;92.91;101907.72;4911983;29;20498;-93
2023/03/20 00:47:22;;;;;;;;;;;;;;;8.35;92.38;101896.81;4895028;29;20040;-92
2023/03/20 00:49:54;;;;;;;17.70;7.85;;;;;;;8.23;92.13;101900.53;4894102;29;19915;-93
2023/03/20 00:52:21;;;;;;;17.88;7.88;;;;;;;8.14;92.13;101894.06;4897432;29;20036;-93
2023/03/20 00:54:47;;;;;;;20.70;7.80;;;;;;;8.11;91.81;101898.19;4896972;29;20088;-93
2023/03/20 00:57:25;;;;;;;19.73;7.63;;;;;;;8.05;91.76;101908.25;4898137;29;20028;-93
2023/03/20 01:00:04;;;;;;;18.25;7.65;;;;;;;7.99;91.90;101914.94;4914253;29;20115;-93
2023/03/20 01:02:32;;;;;;;19.13;7.13;;;;;;;7.95;92.15;101923.38;4899187;29;20028;-93
2023/03/20 01:04:58;;;;;;;18.52;7.95;;;;;;;7.93;92.21;101924.09;4896890;29;20086;-92
2023/03/20 01:07:24;;;;;;;18.70;7.82;;;;;;;7.85;92.11;101939.28;4897864;29;20024;-93
2023/03/20 01:09:52;;;;;;;17.75;7.65;;;;;;;7.75;92.67;101949.97;4898183;29;20056;-93
2023/03/20 01:12:21;;;;;;;19.27;7.80;;;;;;;7.66;92.88;101950.38;4898403;29;20042;-93
2023/03/20 01:14:58;;;;;;;17.63;7.90;;;;;;;7.62;92.98;101953.63;4895807;29;20735;-92
2023/03/20 01:17:25;;;;;;;18.15;8.00;;;;;;;7.59;93.02;101953.44;4897178;29;20104;-93
2023/03/20 01:19:51;;;;;;;17.25;8.27;;;;;;;7.55;93.51;101938.56;4899229;29;20118;-93
2023/03/20 01:22:21;;;;;;;19.10;8.23;;;;;;;7.56;93.15;101930.84;4914795;29;20104;-93
2023/03/20 01:24:47;;;;;;;19.17;8.88;;;;;;;7.55;93.36;101923.00;4914563;29;20035;-94
2023/03/20 01:27:20;;;;;;;19.65;8.00;;;;;;;7.54;93.40;101916.88;4898537;29;20054;-92
2023/03/20 01:29:46;;;;;;;19.98;7.80;;;;;;;7.55;92.83;101923.88;4897765;29;20040;-92
2023/03/20 01:32:20;;;;;;;21.35;8.95;;;;;;;7.52;92.68;101923.72;4899601;29;20050;-92
2023/03/20 01:34:46;;;;;;;20.38;8.35;;;;;;;7.53;92.81;101940.16;4897798;29;20040;-93
2023/03/20 01:37:16;;;;;;;23.65;8.55;;;;;;;7.48;92.29;101945.09;4897175;29;20055;-92
2023/03/20 01:39:41;;;;;;;;;;;;;;;7.53;92.02;101935.88;4897783;29;20398;-92
2023/03/20 01:42:07;;;;;;;18.40;7.35;;;;;;;7.47;92.04;101936.44;4898212;29;19924;-93
2023/03/20 01:44:35;;;;;;;17.50;7.90;;;;;;;7.45;91.86;101938.03;4896933;29;20036;-92
2023/03/20 01:47:05;;;;;;;21.58;8.52;;;;;;;7.45;91.87;101930.25;4898134;29;20039;-93
2023/03/20 01:50:08;;;;;;;20.55;8.73;;;;;;;7.47;92.02;101933.84;4914616;29;20398;-92
2023/03/20 01:52:33;;;;;;;20.33;8.23;;;;;;;7.43;91.81;101920.59;4915020;29;20028;-93
2023/03/20 01:55:02;;;;;;;20.50;8.52;;;;;;;7.41;91.56;101920.53;4900637;29;20035;-93
2023/03/20 01:57:33;;;;;;;;;;;;;;;7.51;91.29;101921.91;4899597;29;20039;-93
2023/03/20 02:00:10;;;;;;;20.55;8.90;;;;;;;7.42;91.31;101934.41;4898262;29;19915;-92
2023/03/20 02:02:39;;;;;;;20.92;9.48;;;;;;;7.40;90.70;101931.72;4898130;29;20036;-93
2023/03/20 02:05:10;;;;;;;21.67;9.02;;;;;;;7.36;91.02;101934.97;4914216;29;20032;-93
2023/03/20 02:07:37;;;;;;;22.98;9.70;;;;;;;7.31;91.21;101932.13;4896946;29;20036;-93
2023/03/20 02:10:21;;;;;;;22.23;9.73;;;;;;;7.29;91.31;101914.69;4886828;29;20048;-93
2023/03/20 02:12:52;;;;;;;22.40;10.02;;;;;;;7.25;91.34;101912.75;4906644;29;20039;-92
2023/03/20 02:15:18;;;;;;;26.25;10.95;;;;;;;7.25;91.29;101930.88;4903061;29;20032;-92
2023/03/20 02:17:44;;;;;;;24.35;10.13;;;;;;;7.24;90.73;101940.38;4903503;29;20024;-93
2023/03/20 02:20:42;;;;;;;25.58;10.63;;;;;;;7.17;91.89;101938.25;4884695;29;20126;-92
2023/03/20 02:23:34;;;;;;;25.15;10.40;;;;;;;7.18;91.49;101950.38;4885676;29;20048;-92
2023/03/20 02:26:12;;;;;;;25.30;10.75;;;;;;;7.17;91.59;101952.88;4884270;29;20056;-93
2023/03/20 02:28:50;;;;;;;25.02;11.10;;;;;;;7.10;91.82;101951.69;4902124;29;20507;-93
2023/03/20 02:31:21;;;;;;;26.33;10.85;;;;;;;6.97;92.96;101960.47;4899186;29;20040;-93
2023/03/20 02:34:19;;;;;;;24.10;11.20;;;;;;;6.87;93.39;101952.97;4902225;29;20043;-93
2023/03/20 02:37:19;;;;;;;25.80;11.40;;;;;;;6.83;93.73;101945.84;4891605;29;20035;-92
2023/03/20 02:40:09;;;;;;;29.35;12.30;;;;;;;6.78;93.96;101937.81;4884408;29;20038;-92
2023/03/20 02:43:02;;;;;;;27.85;11.98;;;;;;;6.72;94.33;101927.06;4883548;29;20494;-92
2023/03/20 02:45:33;;;;;;;28.60;11.77;;;;;;;6.71;94.27;101925.31;4881774;29;20598;-93
2023/03/20 02:48:16;;;;;;;26.05;11.43;;;;;;;6.74;94.54;101925.50;4881302;29;20411;-96
2023/03/20 02:51:04;;;;;;;27.38;11.73;;;;;;;6.75;94.75;101920.38;4888178;29;20029;-96
2023/03/20 02:54:19;;;;;;;26.77;11.33;;;;;;;6.75;94.32;101920.38;4889707;29;20016;-96
2023/03/20 02:57:06;;;;;;;24.27;11.15;;;;;;;6.78;94.65;101919.69;4885308;29;20288;-96
2023/03/20 03:00:07;;;;;;;24.52;11.68;;;;;;;6.76;94.91;101919.59;4887023;29;20063;-96
2023/03/20 03:02:51;;;;;;;28.05;11.52;;;;;;;6.79;94.20;101912.00;4886340;29;20147;-96
2023/03/20 03:05:33;;;;;;;25.83;11.52;;;;;;;6.76;93.77;101909.22;4888981;29;20040;-96
2023/03/20 03:08:03;;;;;;;27.13;11.80;;;;;;;6.73;93.81;101915.91;4895548;29;20036;-96
2023/03/20 03:10:40;;;;;;;24.30;11.32;;;;;;;6.67;94.43;101911.28;4901236;29;20032;-96
2023/03/20 03:13:14;;;;;;;26.02;11.55;;;;;;;6.64;94.37;101908.53;4905593;29;20051;-96
2023/03/20 03:16:05;;;;;;;27.02;11.43;;;;;;;6.57;94.34;101896.91;4907783;29;20032;-96
2023/03/20 03:18:34;;;;;;;27.60;12.02;;;;;;;6.52;94.67;101897.50;4902598;29;20164;-96
2023/03/20 03:21:02;;;;;;;24.65;11.15;;;;;;;6.49;95.66;101885.25;4900172;29;20023;-96
2023/03/20 03:23:31;;;;;;;26.40;11.43;;;;;;;6.47;95.47;101889.44;4901534;29;20039;-96
2023/03/20 03:26:02;;;;;;;25.27;11.45;;;;;;;6.42;95.51;101881.41;4899243;29;20031;-96
2023/03/20 03:28:39;;;;;;;24.55;11.45;;;;;;;6.41;96.17;101870.97;4901720;29;20031;-96
2023/03/20 03:31:10;;;;;;;27.13;12.30;;;;;;;6.37;95.78;101880.28;4902795;29;20063;-96
2023/03/20 03:33:39;;;;;;;28.17;11.48;;;;;;;6.35;95.97;101879.28;4898941;29;20118;-96
2023/03/20 03:36:24;;;;;;;27.33;11.68;;;;;;;6.36;96.14;101895.72;4904914;29;20032;-96
2023/03/20 03:39:23;;;;;;;24.55;11.32;;;;;;;6.38;96.06;101882.03;4902531;29;20028;-96
2023/03/20 03:42:26;;;;;;;25.00;11.80;;;;;;;6.38;96.00;101884.63;4900384;29;20062;-96
2023/03/20 03:45:01;;;;;;;24.63;10.65;;;;;;;6.34;96.23;101877.47;4875723;29;20036;-96
2023/03/20 03:47:42;;;;;;;23.48;10.73;;;;;;;6.32;96.26;101868.75;4918653;29;20020;-96
2023/03/20 03:50:18;;;;;;;23.98;10.55;;;;;;;6.29;96.36;101881.50;4901589;29;20514;-96
2023/03/20 03:52:50;;;;;;;24.30;11.10;;;;;;;6.29;96.60;101865.09;4902246;29;20028;-96
2023/03/20 03:55:21;;;;;;;26.95;11.32;;;;;;;6.25;96.35;101864.03;4904129;29;20450;-96
2023/03/20 03:58:00;;;;;;;25.15;10.27;;;;;;;6.28;96.54;101871.97;4901505;29;20103;-94
2023/03/20 04:00:36;;;;;;;23.65;10.60;;;;;;;6.29;96.35;101873.75;4911840;29;20040;-94
2023/03/20 04:03:05;;;;;;;26.92;11.55;;;;;;;6.29;96.28;101878.94;4896549;29;20084;-94
2023/03/20 04:05:31;;;;;;;26.92;10.93;;;;;;;6.30;96.16;101872.97;4894762;29;20513;-92
2023/03/20 04:08:02;;;;;;;25.90;11.18;;;;;;;6.33;96.17;101877.38;4896904;29;20024;-93
2023/03/20 04:10:27;;;;;;;23.63;11.40;;;;;;;6.33;95.98;101867.03;4894604;29;20028;-93
2023/03/20 04:12:55;;;;;;;25.30;10.55;;;;;;;6.30;96.07;101862.59;4895811;29;20896;-94
2023/03/20 04:15:26;;;;;;;22.75;10.90;;;;;;;6.28;95.55;101860.72;4894777;29;20032;-94
2023/03/20 04:17:54;;;;;;;24.67;10.75;;;;;;;6.28;95.83;101858.13;4912492;29;20028;-93
2023/03/20 04:20:20;;;;;;;23.38;11.20;;;;;;;6.26;95.74;101858.94;4894871;29;20043;-93
2023/03/20 04:22:48;;;;;;;26.90;11.27;;;;;;;6.28;95.73;101856.44;4894699;29;20032;-93
2023/03/20 04:25:17;;;;;;;22.38;11.27;;;;;;;6.28;95.38;101860.72;4893493;29;20084;-93
2023/03/20 04:27:46;;;;;;;25.08;10.93;;;;;;;6.27;94.95;101857.22;4894144;29;20021;-93
2023/03/20 04:30:22;;;;;;;23.58;10.90;;;;;;;6.25;95.64;101861.44;4896700;29;20527;-93
2023/03/20 04:32:50;;;;;;;21.42;10.77;;;;;;;6.24;95.11;101860.56;4897470;29;20028;-92
2023/03/20 04:35:16;;;;;;;23.27;10.32;;;;;;;6.24;95.41;101859.63;4898771;29;20028;-94
2023/03/20 04:37:44;;;;;;;26.08;11.55;;;;;;;6.17;95.33;101847.16;4899152;29;20020;-93
2023/03/20 04:40:11;;;;;;;24.33;10.38;;;;;;;6.15;95.50;101856.53;4899147;29;20124;-94
2023/03/20 04:42:40;;;;;;;27.42;11.10;;;;;;;6.07;95.42;101849.22;4897572;29;20087;-93
2023/03/20 04:45:06;;;;;;;24.63;10.90;;;;;;;6.06;95.34;101850.00;4915240;29;20398;-93
2023/03/20 04:47:31;;;;;;;23.95;11.10;;;;;;;6.05;95.43;101858.59;4914842;29;20372;-92
2023/03/20 04:49:59;;;;;;;25.75;11.05;;;;;;;6.04;95.63;101846.47;4916777;29;20031;-93
2023/03/20 04:52:30;;;;;;;23.92;11.10;;;;;;;6.04;95.53;101837.78;4898070;29;20036;-93
2023/03/20 04:54:56;;;;;;;25.98;11.43;;;;;;;6.04;96.04;101820.59;4898444;29;20031;-94
2023/03/20 04:57:24;;;;;;;23.90;10.85;;;;;;;6.03;95.81;101820.50;4913643;29;20371;-93
2023/03/20 04:59:50;;;;;;;23.20;10.40;;;;;;;6.03;96.09;101836.03;4896580;29;20131;-94
2023/03/20 05:02:18;;;;;;;24.27;11.05;;;;;;;5.98;96.10;101835.75;4905828;29;20655;-93
2023/03/20 05:04:44;;;;;;;25.70;11.13;;;;;;;5.96;96.38;101839.91;4912248;29;20091;-94
2023/03/20 05:07:16;;;;;;;23.27;10.85;;;;;;;5.96;96.43;101852.84;4899845;29;20028;-92
2023/03/20 05:09:42;;;;;;;22.77;10.55;;;;;;;5.95;96.67;101843.28;4898208;29;20054;-94
2023/03/20 05:12:17;;;;;;;25.27;11.43;;;;;;;5.98;96.61;101850.38;4916456;29;20028;-94
2023/03/20 05:14:45;;;;;;;25.65;10.23;;;;;;;5.95;96.51;101837.22;4897611;29;20032;-94
2023/03/20 05:17:11;;;;;;;23.55;10.40;;;;;;;5.96;96.65;101836.44;4914435;29;20020;-92
2023/03/20 05:19:37;;;;;;;25.83;11.27;;;;;;;5.95;96.94;101835.53;4898468;29;20103;-92
2023/03/20 05:22:03;;;;;;;23.13;10.85;;;;;;;5.96;96.94;101837.31;4897887;29;20087;-93
2023/03/20 05:24:30;;;;;;;26.92;11.45;;;;;;;5.95;97.02;101827.75;4914241;29;20025;-93
2023/03/20 05:26:55;;;;;;;23.08;10.52;;;;;;;5.95;96.80;101832.94;4896618;29;20534;-93
2023/03/20 05:29:27;;;;;;;26.38;11.35;;;;;;;5.91;97.16;101828.41;4895566;29;20197;-94
2023/03/20 05:31:54;;;;;;;27.38;11.40;;;;;;;5.89;97.26;101833.50;4895916;29;20103;-93
2023/03/20 05:34:23;;;;;;;23.10;10.68;;;;;;;5.89;97.51;101832.59;4894772;29;20068;-94
2023/03/20 05:36:57;;;;;;;25.25;10.95;;;;;;;5.88;97.84;101834.28;4914702;29;20035;-93
2023/03/20 05:39:23;;;;;;;25.10;11.02;;;;;;;5.90;97.75;101826.63;4898364;29;20056;-93
2023/03/20 05:41:48;;;;;;;24.02;10.98;;;;;;;5.91;97.65;101828.41;4916234;29;20040;-94
2023/03/20 05:44:17;;;;;;;23.75;10.40;;;;;;;5.89;97.79;101825.72;4898914;29;20071;-93
2023/03/20 05:46:51;;;;;;;27.85;11.07;;;;;;;5.89;97.96;101830.91;4899194;29;20031;-93
2023/03/20 05:49:16;;;;;;;23.27;9.88;;;;;;;5.87;98.02;101831.63;4915911;29;20040;-94
2023/03/20 05:51:44;;;;;;;20.33;10.05;;;;;;;5.88;97.67;101834.28;4900792;29;20020;-94
2023/03/20 05:54:13;;;;;;;21.73;9.65;;;;;;;5.91;97.63;101838.75;4916057;29;20047;-94
2023/03/20 05:56:38;;;;;;;20.10;9.52;;;;;;;5.95;98.07;101850.16;4900155;29;20371;-93
2023/03/20 05:59:03;;;;;;;23.77;10.13;;;;;;;5.96;97.78;101852.84;4900287;29;20039;-93
2023/03/20 06:01:29;;;;;;;22.67;10.13;;;;;;;6.00;97.27;101860.00;4899740;29;20478;-95
2023/03/20 06:03:57;;;;;;;23.30;10.15;;;;;;;5.99;97.98;101858.22;4899464;29;20028;-94
2023/03/20 06:06:26;;;;;;;22.73;9.07;;;;;;;6.00;97.80;101862.59;4896209;29;20048;-93
2023/03/20 06:08:54;;;;;;;24.60;10.20;;;;;;;6.02;97.80;101863.56;4898046;29;20048;-94
2023/03/20 06:11:21;;;;;;;20.05;9.20;;;;;;;6.01;97.33;101866.97;4898458;29;20295;-94
2023/03/20 06:13:58;;;;;;;24.08;9.93;;;;;;;6.01;97.99;101856.63;4916019;29;20107;-94
2023/03/20 06:16:25;;;;;;;25.15;9.93;;;;;;;6.02;97.48;101863.56;4915809;29;20145;-94
2023/03/20 06:18:54;;;;;;;20.95;9.57;;;;;;;6.04;97.58;101872.31;4897619;29;20044;-94
2023/03/20 06:21:25;;;;;;;21.60;9.53;;;;;;;6.04;97.33;101869.75;4897084;29;20043;-95
2023/03/20 06:23:50;;;;;;;20.90;9.30;;;;;;;6.04;97.53;101869.75;4898685;29;20032;-95
2023/03/20 06:26:16;;;;;;;20.40;9.40;;;;;;;6.06;98.20;101873.28;4900173;29;20427;-94
2023/03/20 06:28:48;;;;;;;20.38;9.18;;;;;;;6.08;97.94;101871.72;4899583;29;20115;-95
2023/03/20 06:31:17;;;;;;;19.13;9.65;;;;;;;6.08;97.75;101863.03;4898373;29;20051;-94
2023/03/20 06:33:46;;;;;;;21.60;9.88;;;;;;;6.11;97.70;101876.16;4897824;29;20052;-94
2023/03/20 06:36:20;;;;;;;23.67;8.93;;;;;;;6.14;97.50;101872.84;4897729;29;20044;-95
2023/03/20 06:38:47;;;;;;;19.30;9.40;;;;;;;6.17;97.21;101878.19;4911445;29;20044;-94
2023/03/20 06:41:21;;;;;;;19.17;8.95;;;;;;;6.21;97.57;101880.16;4899459;29;20035;-94
2023/03/20 06:43:47;;;;;;;21.80;9.32;;;;;;;6.24;97.00;101883.84;4898787;29;20023;-94
2023/03/20 06:46:12;;;;;;;18.50;8.85;;;;;;;6.28;96.85;101896.97;4899373;29;20035;-95
2023/03/20 06:48:37;;;;;;;21.35;9.32;;;;;;;6.29;96.64;101901.34;4900169;29;20109;-92
2023/03/20 06:51:03;;;;;;;19.05;9.38;;;;;;;6.31;96.59;101908.38;4892692;29;20028;-92
2023/03/20 06:53:31;;;;;;;19.95;9.30;;;;;;;6.32;97.11;101904.97;4897733;29;20469;-94
2023/03/20 06:55:56;;;;;;;21.17;9.27;;;;;;;6.36;96.50;101906.06;4897459;29;20032;-93
2023/03/20 06:58:22;;;;;;;21.42;9.13;;;;;;;6.38;95.99;101915.69;4892282;29;20122;-93
2023/03/20 07:00:53;;;;;;;24.65;9.80;;;;;;;6.40;96.19;101914.09;4892568;29;20076;-93
2023/03/20 07:03:27;;;;;;;21.95;9.30;;;;;;;6.41;96.28;101910.69;4911478;29;20032;-93
2023/03/20 07:06:00;;;;;;;21.33;9.07;;;;;;;6.42;96.12;101915.06;4893999;29;20083;-93
2023/03/20 07:08:25;;;;;;;21.55;9.30;;;;;;;6.42;95.96;101915.06;4891404;29;20099;-92
2023/03/20 07:10:51;;;;;;;21.13;9.50;;;;;;;6.43;96.29;101916.84;4891400;29;20045;-93
2023/03/20 07:13:17;;;;;;;24.60;10.02;;;;;;;6.44;95.63;101923.81;4910039;29;20408;-93
2023/03/20 07:15:45;;;;;;;22.67;9.25;;;;;;;6.49;95.78;101925.75;4894453;29;20502;-92
2023/03/20 07:18:11;;;;;;;19.97;9.53;;;;;;;6.52;95.75;101921.66;4893278;29;20402;-93
2023/03/20 07:20:36;;;;;;;21.15;10.07;;;;;;;6.54;95.25;101927.81;4910081;29;20302;-93
2023/03/20 07:23:02;;;;;;;21.88;10.07;;;;;;;6.59;95.89;101923.81;4910461;29;20028;-92
2023/03/20 07:25:27;;;;;;;21.48;9.30;;;;;;;6.62;95.05;101920.50;4908605;29;20486;-92
2023/03/20 07:27:58;;;;;;;23.83;9.48;;;;;;;6.61;94.63;101923.91;4892841;29;20032;-91
2023/03/20 07:30:34;;;;;;;21.50;9.60;;;;;;;6.62;95.17;101936.03;4894109;29;20494;-93
2023/03/20 07:33:02;;;;;;;21.92;9.05;;;;;;;6.64;95.17;101930.94;4892974;29;20068;-93
2023/03/20 07:35:33;;;;;;;21.00;9.38;;;;;;;6.68;95.02;101930.31;4893561;29;20115;-93
2023/03/20 07:38:01;;;;;;;25.67;9.98;;;;;;;6.68;94.40;101927.75;4893431;29;20028;-93
2023/03/20 07:40:29;;;;;;;24.90;9.40;;;;;;;6.71;94.70;101935.69;4902757;29;20031;-93
2023/03/20 07:43:00;;;;;;;18.05;8.73;;;;;;;6.72;94.52;101938.34;4893858;29;20044;-92
2023/03/20 07:45:32;;;;;;;23.40;9.20;;;;;;;6.76;94.01;101929.03;4910130;29;20027;-92
2023/03/20 07:48:02;;;;;;;21.63;8.95;;;;;;;6.77;94.08;101930.84;4910416;29;20028;-92
2023/03/20 07:50:30;;;;;;;22.85;9.35;;;;;;;6.80;93.95;101931.00;4911054;29;20039;-93
2023/03/20 07:52:56;;;;;;;21.80;9.77;;;;;;;6.79;93.29;101924.03;4893361;29;20593;-92
2023/03/20 07:55:21;;;;;;;17.58;8.48;;;;;;;6.81;93.77;101929.28;4893647;29;20957;-93
2023/03/20 07:57:48;;;;;;;22.50;8.93;;;;;;;6.84;93.24;101926.91;4893541;29;20111;-93
2023/03/20 08:00:17;;;;;;;18.25;8.93;;;;;;;6.86;93.04;101933.06;4892561;29;20095;-93
2023/03/20 08:02:44;;;;;;;20.75;9.25;;;;;;;6.88;93.32;101931.44;4907750;29;20066;-94
2023/03/20 08:05:15;;;;;;;22.63;9.38;;;;;;;6.91;93.05;101937.69;4894550;29;20032;-94
2023/03/20 08:07:44;;;;;;;22.33;8.50;;;;;;;6.96;92.64;101927.56;4913686;29;20036;-93
2023/03/20 08:10:28;;;;;;;20.02;8.82;;;;;;;6.99;92.93;101927.75;4911630;29;20043;-95
2023/03/20 08:12:56;;;;;;;18.83;8.40;;;;;;;6.99;91.85;101927.75;4893931;29;20143;-94
2023/03/20 08:15:24;;;;;;;20.30;8.68;;;;;;;6.97;91.91;101935.44;4896150;29;20028;-94
2023/03/20 08:17:53;;;;;;;23.37;8.80;;;;;;;6.96;91.84;101932.75;4897367;29;20024;-95
2023/03/20 08:20:38;;;;;;;;;;;;;;;;;;;;;
2023/03/20 08:23:07;;;;;;;20.55;8.90;;;;;;;6.99;91.75;101929.44;4922201;29;20050;-95
2023/03/20 08:25:33;;;;;;;20.10;8.77;;;;;;;7.00;91.44;101933.84;4910905;23;22984;-66
2023/03/20 08:28:01;;;;;;;19.95;8.15;;;;;;;6.98;91.37;101925.97;4879966;29;20152;-66
2023/03/20 08:30:26;;;;;;;25.65;8.25;;;;;;;6.99;91.60;101922.56;4873119;29;20037;-65
2023/03/20 08:32:52;;;;;;;19.23;8.60;;;;;;;7.02;91.48;101927.03;4868290;29;20025;-65
2023/03/20 08:35:17;;;;;;;19.20;8.35;;;;;;;7.04;91.54;101926.31;4870030;29;20116;-66
2023/03/20 08:37:43;;;;;;;17.92;7.85;;;;;;;7.08;91.90;101920.50;4868019;29;20025;-65
2023/03/20 08:40:09;;;;;;;17.70;8.07;;;;;;;7.11;91.31;101927.53;4877053;29;20057;-65
2023/03/20 08:42:34;;;;;;;20.20;8.13;;;;;;;7.14;91.21;101922.53;4878000;29;20125;-65
2023/03/20 08:45:00;;;;;;;19.45;7.90;;;;;;;7.17;91.22;101927.88;4912660;23;20919;-94
2023/03/20 08:47:30;;;;;;;19.13;8.30;;;;;;;7.21;91.07;101921.16;4925224;29;20088;-94
2023/03/20 08:49:56;;;;;;;18.42;8.00;;;;;;;7.28;91.03;101925.88;4910254;29;20073;-94
2023/03/20 08:52:21;;;;;;;24.73;8.90;;;;;;;7.28;90.66;101931.06;4908480;29;20615;-95
2023/03/20 08:54:47;;;;;;;19.15;7.72;;;;;;;7.28;90.36;101925.88;4905435;29;20498;-96
2023/03/20 08:57:12;;;;;;;20.42;7.95;;;;;;;7.30;90.68;101930.34;4905787;29;20023;-96
2023/03/20 08:59:47;;;;;;;20.10;7.80;;;;;;;7.33;90.56;101921.84;4906587;29;20054;-92
2023/03/20 09:02:12;;;;;;;19.58;7.80;;;;;;;7.36;90.56;101913.31;4906624;29;20087;-93
2023/03/20 09:04:43;;;;;;;21.58;8.45;;;;;;;7.38;90.71;101917.78;4927379;29;20036;-96
2023/03/20 09:07:09;;;;;;;18.00;7.40;;;;;;;7.40;90.26;101916.19;4912319;29;20423;-89
2023/03/20 09:09:34;;;;;;;21.85;8.23;;;;;;;7.42;90.76;101911.94;4926579;29;20104;-89
2023/03/20 09:12:00;;;;;;;25.77;8.55;;;;;;;7.44;90.30;101923.31;4927515;29;20549;-90
2023/03/20 09:14:27;;;;;;;22.55;8.68;;;;;;;7.48;90.31;101922.63;4928040;29;20032;-89
2023/03/20 09:16:52;;;;;;;19.65;8.25;;;;;;;7.46;89.98;101929.47;4911275;29;21003;-91
2023/03/20 09:19:18;;;;;;;23.08;9.05;;;;;;;7.42;90.49;101932.69;4912992;29;20027;-90
2023/03/20 09:21:44;;;;;;;21.25;8.30;;;;;;;7.37;91.13;101933.25;4906231;29;20500;-90
2023/03/20 09:24:10;;;;;;;18.30;8.57;;;;;;;7.33;92.23;101939.97;4924102;29;20071;-88
2023/03/20 09:26:36;;;;;;;21.00;8.88;;;;;;;7.30;92.71;101940.69;4901990;29;20502;-89
2023/03/20 09:29:01;;;;;;;19.77;8.45;;;;;;;7.27;93.46;101950.00;4912547;29;20051;-89
2023/03/20 09:31:26;;;;;;;19.50;7.80;;;;;;;7.21;93.43;101947.06;4929689;29;20031;-89
2023/03/20 09:33:52;;;;;;;17.88;8.43;;;;;;;7.18;94.38;101949.50;4930574;29;20028;-89
2023/03/20 09:36:17;;;;;;;16.98;8.38;;;;;;;7.16;94.35;101943.34;4912653;29;20111;-89
2023/03/20 09:38:43;;;;;;;17.38;8.07;;;;;;;7.15;95.64;101950.22;4913240;29;20417;-89
2023/03/20 09:41:26;;;;;;;22.17;8.77;;;;;;;7.14;95.69;101944.16;4911823;29;20382;-89
2023/03/20 09:44:09;;;;;;;19.55;8.50;;;;;;;7.14;96.05;101949.34;4928675;29;20036;-89
2023/03/20 09:46:37;;;;;;;18.30;8.02;;;;;;;7.17;96.60;101945.13;4930242;29;20042;-89
2023/03/20 09:49:19;;;;;;;21.90;8.43;;;;;;;7.20;97.13;101942.69;4913142;29;20114;-89
2023/03/20 09:51:51;;;;;;;16.83;8.35;;;;;;;7.23;97.21;101945.47;4927994;29;20047;-88
2023/03/20 09:54:35;;;;;;;21.63;9.00;;;;;;;7.22;96.50;101941.97;4912921;29;20099;-89
2023/03/20 09:57:01;;;;;;;19.58;7.82;;;;;;;7.20;97.51;101938.41;4928380;29;20019;-91
2023/03/20 09:59:29;;;;;;;20.05;8.25;;;;;;;7.22;97.41;101933.31;4928988;29;20478;-91
2023/03/20 10:02:00;;;;;;;17.67;8.10;;;;;;;7.22;97.19;101941.97;4929532;29;20039;-91
2023/03/20 10:04:28;;;;;;;19.08;8.70;;;;;;;7.20;98.17;101942.69;4929401;29;20103;-91
2023/03/20 10:06:55;;;;;;;19.00;7.88;;;;;;;7.20;98.85;101937.50;4912616;29;20028;-90
2023/03/20 10:09:25;;;;;;;18.45;7.95;;;;;;;7.20;98.37;101938.41;4910250;29;20038;-91
2023/03/20 10:12:23;;;;;;;14.70;8.20;;;;;;;7.24;98.37;101940.38;4912376;29;20027;-91
2023/03/20 10:15:17;;;;;;;21.95;7.75;;;;;;;7.27;99.06;101937.03;4912521;29;20032;-91
2023/03/20 10:17:50;;;;;;;21.83;7.65;;;;;;;7.27;98.12;101929.25;4912716;29;20026;-91
2023/03/20 10:20:36;;;;;;;20.13;7.63;;;;;;;7.27;98.89;101924.06;4926404;29;20031;-91
2023/03/20 10:23:06;;;;;;;18.85;7.45;;;;;;;7.26;98.30;101924.91;4911756;29;20051;-90
2023/03/20 10:25:36;;;;;;;18.58;7.63;;;;;;;7.27;98.73;101921.47;4929454;29;20031;-91
2023/03/20 10:28:23;;;;;;;17.48;7.60;;;;;;;7.25;99.49;101911.03;4920902;29;20039;-91
2023/03/20 10:31:18;;;;;;;18.60;7.45;;;;;;;7.24;98.07;101921.31;4909179;29;20031;-95
2023/03/20 10:33:46;;;;;;;18.70;7.53;;;;;;;7.27;99.60;101913.69;4912929;29;20090;-93
2023/03/20 10:36:32;;;;;;;16.08;7.38;;;;;;;7.32;100.00;101915.75;4930845;29;20023;-89
2023/03/20 10:39:04;;;;;;;19.60;7.88;;;;;;;7.38;100.00;101922.06;4910340;29;20420;-90
2023/03/20 10:41:34;;;;;;;18.05;7.25;;;;;;;7.37;98.56;101904.72;4929094;29;20031;-89
2023/03/20 10:44:01;;;;;;;19.70;6.68;;;;;;;7.38;98.86;101907.41;4911120;29;20076;-90
2023/03/20 10:46:30;;;;;;;16.75;6.78;;;;;;;7.38;98.57;101917.78;4907316;29;20091;-89
2023/03/20 10:49:18;;;;;;;14.88;6.88;;;;;;;7.40;98.14;101910.06;4919013;29;20055;-92
2023/03/20 10:51:53;;;;;;;14.95;7.47;;;;;;;7.44;98.82;101901.66;4908099;29;20075;-90
2023/03/20 10:54:29;;;;;;;18.15;7.18;;;;;;;7.48;97.71;101917.44;4909039;29;20046;-90
2023/03/20 10:56:57;;;;;;;17.85;7.03;;;;;;;7.55;97.05;101912.63;4907926;29;20032;-90
2023/03/20 10:59:47;;;;;;;15.60;7.00;;;;;;;7.62;97.19;101919.91;4908858;29;20550;-89
2023/03/20 11:02:15;;;;;;;23.65;11.15;;;;;;;7.70;97.70;101912.53;4902278;29;20042;-90
2023/03/20 11:04:40;;;;;;;19.13;7.40;;;;;;;7.76;96.88;101912.84;4913862;29;20071;-89
2023/03/20 11:07:16;;;;;;;33.38;15.50;;;;;;;7.78;95.80;101914.72;4906840;29;20043;-89
2023/03/20 11:09:41;;;;;;;21.63;10.35;;;;;;;7.77;96.65;101912.03;4911864;29;20068;-89
2023/03/20 11:12:19;;;;;;;20.88;9.68;;;;;;;7.78;96.51;101912.13;4914720;29;20036;-89
2023/03/20 11:14:45;;;;;;;17.80;8.18;;;;;;;7.83;97.41;101902.88;4918758;29;20020;-88
2023/03/20 11:17:11;;;;;;;20.95;11.18;;;;;;;7.86;96.64;101903.84;4909057;29;20031;-90
2023/03/20 11:19:40;;;;;;;22.27;10.63;;;;;;;7.85;96.20;101897.75;4907834;29;20060;-91
2023/03/20 11:22:27;;;;;;;19.48;8.52;;;;;;;7.86;96.24;101893.47;4908843;29;20040;-90
2023/03/20 11:25:01;;;;;;;21.80;10.77;;;;;;;7.89;96.08;101886.69;4907971;29;20071;-89
2023/03/20 11:27:30;;;;;;;25.35;10.68;;;;;;;7.93;96.82;101886.06;4908504;29;20035;-91
2023/03/20 11:29:57;;;;;;;21.15;10.63;;;;;;;7.95;96.02;101883.53;4923641;29;20039;-91
2023/03/20 11:32:29;;;;;;;17.77;8.32;;;;;;;7.96;95.09;101882.72;4905702;29;20031;-91
2023/03/20 11:34:56;;;;;;;20.23;9.88;;;;;;;7.97;95.96;101874.16;4904612;29;20032;-92
2023/03/20 11:37:28;;;;;;;18.48;8.57;;;;;;;8.00;93.95;101874.28;4907931;29;20474;-90
2023/03/20 11:39:59;;;;;;;17.98;7.72;;;;;;;7.96;93.27;101868.03;4906214;29;20206;-92
2023/03/20 11:42:29;;;;;;;16.30;7.05;;;;;;;7.91;94.66;101859.16;4908619;29;20055;-91
2023/03/20 11:45:00;;;;;;;18.08;7.55;;;;;;;7.99;94.83;101857.84;4916943;29;20051;-91